Time,TemperatureF,DewpointF,PressureIn,WindDirection,WindDirectionDegrees,WindSpeedMPH,WindSpeedGustMPH,Humidity,HourlyPrecipIn,Conditions,Clouds,dailyrainin,SoftwareType,DateUTC
2013-02-15 00:00:00,57.0,42.4,30.10,East,91,1.0,1.0,58,0.00,,,0.00,Wunderground v.1.15,2013-02-15 08:00:00,
2013-02-15 00:05:00,56.7,42.1,30.10,East,91,0.0,2.0,58,0.00,,,0.00,Wunderground v.1.15,2013-02-15 08:05:00,
2013-02-15 00:10:00,56.6,42.0,30.10,East,91,1.0,2.0,58,0.00,,,0.00,Wunderground v.1.15,2013-02-15 08:10:00,
2013-02-15 00:15:00,56.7,42.1,30.10,East,91,0.0,2.0,58,0.00,,,0.00,Wunderground v.1.15,2013-02-15 08:15:00,
2013-02-15 00:20:00,56.7,42.1,30.10,East,91,0.0,1.0,58,0.00,,,0.00,Wunderground v.1.15,2013-02-15 08:20:00,
2013-02-15 00:25:00,56.7,41.6,30.10,East,91,0.0,3.0,57,0.00,,,0.00,Wunderground v.1.15,2013-02-15 08:25:00,
2013-02-15 00:30:00,56.7,42.1,30.10,East,91,1.0,3.0,58,0.00,,,0.00,Wunderground v.1.15,2013-02-15 08:30:00,
2013-02-15 00:35:00,56.7,42.1,30.10,East,91,2.0,3.0,58,0.00,,,0.00,Wunderground v.1.15,2013-02-15 08:35:00,
2013-02-15 00:40:00,56.7,41.6,30.10,East,91,0.0,1.0,57,0.00,,,0.00,Wunderground v.1.15,2013-02-15 08:40:00,
2013-02-15 00:45:00,56.6,41.5,30.10,East,91,0.0,1.0,57,0.00,,,0.00,Wunderground v.1.15,2013-02-15 08:45:00,
2013-02-15 00:50:00,56.5,41.4,30.10,NNW,332,1.0,1.0,57,0.00,,,0.00,Wunderground v.1.15,2013-02-15 08:50:00,
2013-02-15 00:55:00,56.5,41.4,30.10,ESE,122,0.0,5.0,57,0.00,,,0.00,Wunderground v.1.15,2013-02-15 08:55:00,
2013-02-15 01:00:00,56.7,41.2,30.10,ESE,122,0.0,1.0,56,0.00,,,0.00,Wunderground v.1.15,2013-02-15 09:00:00,
2013-02-15 01:05:00,56.6,41.1,30.10,South,172,2.0,2.0,56,0.00,,,0.00,Wunderground v.1.15,2013-02-15 09:05:00,
2013-02-15 01:10:00,56.5,41.0,30.10,South,184,0.0,0.0,56,0.00,,,0.00,Wunderground v.1.15,2013-02-15 09:10:00,
2013-02-15 01:15:00,56.6,40.6,30.10,South,184,0.0,2.0,55,0.00,,,0.00,Wunderground v.1.15,2013-02-15 09:15:00,
2013-02-15 01:20:00,56.7,39.3,30.10,SW,220,0.0,0.0,52,0.00,,,0.00,Wunderground v.1.15,2013-02-15 09:20:00,
2013-02-15 01:25:00,57.5,39.5,30.10,SW,221,0.0,2.0,51,0.00,,,0.00,Wunderground v.1.15,2013-02-15 09:25:00,
2013-02-15 01:30:00,57.8,38.8,30.10,SW,221,1.0,1.0,49,0.00,,,0.00,Wunderground v.1.15,2013-02-15 09:30:00,
2013-02-15 01:35:00,57.8,39.3,30.10,SW,221,2.0,3.0,50,0.00,,,0.00,Wunderground v.1.15,2013-02-15 09:35:00,
2013-02-15 01:40:00,58.0,38.4,30.10,West,262,3.0,3.0,48,0.00,,,0.00,Wunderground v.1.15,2013-02-15 09:40:00,
2013-02-15 01:45:00,58.4,39.3,30.10,West,263,2.0,3.0,49,0.00,,,0.00,Wunderground v.1.15,2013-02-15 09:45:00,
2013-02-15 01:50:00,58.4,37.7,30.10,West,263,0.0,1.0,46,0.00,,,0.00,Wunderground v.1.15,2013-02-15 09:50:00,
2013-02-15 01:55:00,59.2,37.9,30.10,West,263,0.0,5.0,45,0.00,,,0.00,Wunderground v.1.15,2013-02-15 09:55:00,
2013-02-15 02:00:00,59.2,39.0,30.09,West,263,0.0,1.0,47,0.00,,,0.00,Wunderground v.1.15,2013-02-15 10:00:00,
2013-02-15 02:05:00,58.7,38.5,30.09,West,263,3.0,3.0,47,0.00,,,0.00,Wunderground v.1.15,2013-02-15 10:05:00,
2013-02-15 02:10:00,58.9,37.6,30.09,West,264,0.0,1.0,45,0.00,,,0.00,Wunderground v.1.15,2013-02-15 10:10:00,
2013-02-15 02:15:00,59.0,38.2,30.09,West,264,0.0,3.0,46,0.00,,,0.00,Wunderground v.1.15,2013-02-15 10:15:00,
2013-02-15 02:20:00,58.4,38.2,30.09,WSW,254,3.0,4.0,47,0.00,,,0.00,Wunderground v.1.15,2013-02-15 10:20:00,
2013-02-15 02:25:00,58.4,38.2,30.09,West,262,2.0,4.0,47,0.00,,,0.00,Wunderground v.1.15,2013-02-15 10:25:00,
2013-02-15 02:30:00,57.8,38.8,30.09,West,262,3.0,3.0,49,0.00,,,0.00,Wunderground v.1.15,2013-02-15 10:30:00,
2013-02-15 02:35:00,58.0,37.9,30.09,WSW,247,0.0,3.0,47,0.00,,,0.00,Wunderground v.1.15,2013-02-15 10:35:00,
2013-02-15 02:40:00,58.3,38.1,30.09,WSW,247,1.0,2.0,47,0.00,,,0.00,Wunderground v.1.15,2013-02-15 10:40:00,
2013-02-15 02:45:00,58.4,37.7,30.09,West,266,2.0,3.0,46,0.00,,,0.00,Wunderground v.1.15,2013-02-15 10:45:00,
2013-02-15 02:50:00,58.9,39.2,30.09,SW,233,0.0,3.0,48,0.00,,,0.00,Wunderground v.1.15,2013-02-15 10:50:00,
2013-02-15 02:55:00,59.6,35.9,30.09,ESE,103,0.0,5.0,41,0.00,,,0.00,Wunderground v.1.15,2013-02-15 10:55:00,
2013-02-15 03:00:00,60.2,36.4,30.08,ESE,103,0.0,1.0,41,0.00,,,0.00,Wunderground v.1.15,2013-02-15 11:00:00,
2013-02-15 03:05:00,60.1,38.7,30.08,SSW,211,0.0,3.0,45,0.00,,,0.00,Wunderground v.1.15,2013-02-15 11:05:00,
2013-02-15 03:10:00,59.5,38.1,30.08,SSW,207,1.0,2.0,45,0.00,,,0.00,Wunderground v.1.15,2013-02-15 11:10:00,
2013-02-15 03:15:00,59.3,37.9,30.07,SSW,207,0.0,2.0,45,0.00,,,0.00,Wunderground v.1.15,2013-02-15 11:15:00,
2013-02-15 03:20:00,59.2,37.9,30.07,SSW,207,0.0,0.0,45,0.00,,,0.00,Wunderground v.1.15,2013-02-15 11:20:00,
2013-02-15 03:25:00,58.9,38.1,30.07,SSW,207,1.0,2.0,46,0.00,,,0.00,Wunderground v.1.15,2013-02-15 11:25:00,
2013-02-15 03:30:00,58.9,37.6,30.07,SSW,207,1.0,2.0,45,0.00,,,0.00,Wunderground v.1.15,2013-02-15 11:30:00,
2013-02-15 03:35:00,58.9,37.6,30.07,SSW,207,0.0,2.0,45,0.00,,,0.00,Wunderground v.1.15,2013-02-15 11:35:00,
2013-02-15 03:40:00,58.9,37.6,30.07,SSW,207,0.0,0.0,45,0.00,,,0.00,Wunderground v.1.15,2013-02-15 11:40:00,
2013-02-15 03:45:00,58.6,37.9,30.07,SSW,207,2.0,2.0,46,0.00,,,0.00,Wunderground v.1.15,2013-02-15 11:45:00,
2013-02-15 03:50:00,57.8,38.2,30.07,West,269,2.0,2.0,48,0.00,,,0.00,Wunderground v.1.15,2013-02-15 11:50:00,
2013-02-15 03:55:00,57.5,37.9,30.07,West,269,0.0,2.0,48,0.00,,,0.00,Wunderground v.1.15,2013-02-15 11:55:00,
2013-02-15 04:00:00,57.2,38.2,30.07,West,269,0.0,0.0,49,0.00,,,0.00,Wunderground v.1.15,2013-02-15 12:00:00,
2013-02-15 04:06:00,56.9,37.9,30.07,West,269,0.0,1.0,49,0.00,,,0.00,Wunderground v.1.15,2013-02-15 12:06:00,
2013-02-15 04:11:00,56.6,38.2,30.07,West,269,2.0,2.0,50,0.00,,,0.00,Wunderground v.1.15,2013-02-15 12:11:00,
2013-02-15 04:16:00,56.5,39.1,30.08,West,269,0.0,2.0,52,0.00,,,0.00,Wunderground v.1.15,2013-02-15 12:16:00,
2013-02-15 04:21:00,56.2,38.3,30.08,West,269,2.0,2.0,51,0.00,,,0.00,Wunderground v.1.15,2013-02-15 12:21:00,
2013-02-15 04:26:00,56.3,38.4,30.08,West,269,0.0,2.0,51,0.00,,,0.00,Wunderground v.1.15,2013-02-15 12:26:00,
2013-02-15 04:31:00,56.5,38.6,30.08,East,101,1.0,1.0,51,0.00,,,0.00,Wunderground v.1.15,2013-02-15 12:31:00,
2013-02-15 04:36:00,56.3,38.4,30.08,ESE,122,0.0,2.0,51,0.00,,,0.00,Wunderground v.1.15,2013-02-15 12:36:00,
2013-02-15 04:41:00,56.3,37.9,30.08,ESE,122,0.0,1.0,50,0.00,,,0.00,Wunderground v.1.15,2013-02-15 12:41:00,
2013-02-15 04:46:00,56.5,38.1,30.09,North,4,0.0,2.0,50,0.00,,,0.00,Wunderground v.1.15,2013-02-15 12:46:00,
2013-02-15 04:51:00,56.5,37.6,30.09,North,3,0.0,0.0,49,0.00,,,0.00,Wunderground v.1.15,2013-02-15 12:51:00,
2013-02-15 04:56:00,56.6,37.6,30.09,North,3,0.0,1.0,49,0.00,,,0.00,Wunderground v.1.15,2013-02-15 12:56:00,
2013-02-15 05:01:00,57.6,38.0,30.09,North,6,1.0,3.0,48,0.00,,,0.00,Wunderground v.1.15,2013-02-15 13:01:00,
2013-02-15 05:06:00,58.9,37.0,30.09,East,98,6.0,11.0,44,0.00,,,0.00,Wunderground v.1.15,2013-02-15 13:06:00,
2013-02-15 05:11:00,60.7,36.8,30.09,ESE,110,8.0,10.0,41,0.00,,,0.00,Wunderground v.1.15,2013-02-15 13:11:00,
2013-02-15 05:16:00,61.8,37.2,30.09,ENE,73,3.0,10.0,40,0.00,,,0.00,Wunderground v.1.15,2013-02-15 13:16:00,
2013-02-15 05:21:00,62.1,37.5,30.09,ESE,110,1.0,4.0,40,0.00,,,0.00,Wunderground v.1.15,2013-02-15 13:21:00,
2013-02-15 05:26:00,62.1,37.5,30.09,East,89,2.0,6.0,40,0.00,,,0.00,Wunderground v.1.15,2013-02-15 13:26:00,
2013-02-15 05:31:00,62.1,38.1,30.09,ESE,123,1.0,6.0,41,0.00,,,0.00,Wunderground v.1.15,2013-02-15 13:31:00,
2013-02-15 05:36:00,61.6,37.7,30.09,East,101,5.0,6.0,41,0.00,,,0.00,Wunderground v.1.15,2013-02-15 13:36:00,
2013-02-15 05:41:00,61.0,38.9,30.09,ESE,105,0.0,2.0,44,0.00,,,0.00,Wunderground v.1.15,2013-02-15 13:41:00,
2013-02-15 05:46:00,60.4,38.4,30.09,ESE,108,2.0,5.0,44,0.00,,,0.00,Wunderground v.1.15,2013-02-15 13:46:00,
2013-02-15 05:51:00,60.1,39.2,30.09,East,99,0.0,1.0,46,0.00,,,0.00,Wunderground v.1.15,2013-02-15 13:51:00,
2013-02-15 05:56:00,59.6,38.8,30.09,ESE,123,0.0,4.0,46,0.00,,,0.00,Wunderground v.1.15,2013-02-15 13:56:00,
2013-02-15 06:01:00,59.0,38.8,30.09,ESE,121,2.0,2.0,47,0.00,,,0.00,Wunderground v.1.15,2013-02-15 14:01:00,
2013-02-15 06:06:00,58.6,39.0,30.09,North,11,0.0,3.0,48,0.00,,,0.00,Wunderground v.1.15,2013-02-15 14:06:00,
2013-02-15 06:11:00,58.0,38.4,30.09,North,11,0.0,1.0,48,0.00,,,0.00,Wunderground v.1.15,2013-02-15 14:11:00,
2013-02-15 06:16:00,57.3,38.3,30.09,North,11,0.0,1.0,49,0.00,,,0.00,Wunderground v.1.15,2013-02-15 14:16:00,
2013-02-15 06:21:00,56.9,38.4,30.09,North,11,1.0,1.0,50,0.00,,,0.00,Wunderground v.1.15,2013-02-15 14:21:00,
2013-02-15 06:26:00,56.7,38.3,30.09,North,11,0.0,2.0,50,0.00,,,0.00,Wunderground v.1.15,2013-02-15 14:26:00,
2013-02-15 06:31:00,56.6,38.2,30.09,North,11,0.0,0.0,50,0.00,,,0.00,Wunderground v.1.15,2013-02-15 14:31:00,
2013-02-15 06:36:00,56.3,37.9,30.09,North,11,0.0,2.0,50,0.00,,,0.00,Wunderground v.1.15,2013-02-15 14:36:00,
2013-02-15 06:41:00,56.6,38.7,30.09,North,11,0.0,0.0,51,0.00,,,0.00,Wunderground v.1.15,2013-02-15 14:41:00,
2013-02-15 06:46:00,56.6,38.2,30.10,North,11,0.0,0.0,50,0.00,,,0.00,Wunderground v.1.15,2013-02-15 14:46:00,
2013-02-15 06:51:00,56.5,38.1,30.10,North,11,0.0,0.0,50,0.00,,,0.00,Wunderground v.1.15,2013-02-15 14:51:00,
2013-02-15 06:56:00,56.3,38.4,30.10,North,11,0.0,0.0,51,0.00,,,0.00,Wunderground v.1.15,2013-02-15 14:56:00,
2013-02-15 07:01:00,56.2,38.8,30.11,North,11,0.0,0.0,52,0.00,,,0.00,Wunderground v.1.15,2013-02-15 15:01:00,
2013-02-15 07:06:00,55.9,39.0,30.11,North,11,0.0,0.0,53,0.00,,,0.00,Wunderground v.1.15,2013-02-15 15:06:00,
2013-02-15 07:11:00,55.6,39.2,30.11,North,11,0.0,0.0,54,0.00,,,0.00,Wunderground v.1.15,2013-02-15 15:11:00,
2013-02-15 07:16:00,55.6,39.2,30.11,North,11,0.0,0.0,54,0.00,,,0.00,Wunderground v.1.15,2013-02-15 15:16:00,
2013-02-15 07:21:00,56.0,39.6,30.11,NNE,17,0.0,0.0,54,0.00,,,0.00,Wunderground v.1.15,2013-02-15 15:21:00,
2013-02-15 07:26:00,56.5,39.1,30.11,NNE,17,0.0,1.0,52,0.00,,,0.00,Wunderground v.1.15,2013-02-15 15:26:00,
2013-02-15 07:31:00,56.7,39.3,30.12,East,89,1.0,1.0,52,0.00,,,0.00,Wunderground v.1.15,2013-02-15 15:31:00,
2013-02-15 07:36:00,57.5,41.0,30.12,East,92,0.0,3.0,54,0.00,,,0.00,Wunderground v.1.15,2013-02-15 15:36:00,
2013-02-15 07:41:00,57.8,40.8,30.12,East,93,0.0,2.0,53,0.00,,,0.00,Wunderground v.1.15,2013-02-15 15:41:00,
2013-02-15 07:46:00,58.0,40.5,30.12,East,93,0.0,2.0,52,0.00,,,0.00,Wunderground v.1.15,2013-02-15 15:46:00,
2013-02-15 07:51:00,58.4,40.8,30.12,ESE,117,0.0,5.0,52,0.00,,,0.00,Wunderground v.1.15,2013-02-15 15:51:00,
2013-02-15 07:56:00,59.2,41.1,30.12,NNE,32,0.0,5.0,51,0.00,,,0.00,Wunderground v.1.15,2013-02-15 15:56:00,
2013-02-15 08:01:00,59.8,41.1,30.12,NNE,32,0.0,0.0,50,0.00,,,0.00,Wunderground v.1.15,2013-02-15 16:01:00,
2013-02-15 08:06:00,60.4,40.6,30.12,NNE,32,0.0,0.0,48,0.00,,,0.00,Wunderground v.1.15,2013-02-15 16:06:00,
2013-02-15 08:11:00,61.0,40.6,30.12,West,270,0.0,2.0,47,0.00,,,0.00,Wunderground v.1.15,2013-02-15 16:11:00,
2013-02-15 08:16:00,62.3,41.2,30.13,West,270,0.0,2.0,46,0.00,,,0.00,Wunderground v.1.15,2013-02-15 16:16:00,
2013-02-15 08:21:00,63.5,42.3,30.13,ENE,76,0.0,2.0,46,0.00,,,0.00,Wunderground v.1.15,2013-02-15 16:21:00,
2013-02-15 08:26:00,64.2,41.2,30.13,ESE,113,0.0,4.0,43,0.00,,,0.00,Wunderground v.1.15,2013-02-15 16:26:00,
2013-02-15 08:31:00,64.3,41.9,30.14,ESE,102,1.0,3.0,44,0.00,,,0.00,Wunderground v.1.15,2013-02-15 16:31:00,
2013-02-15 08:36:00,64.3,43.1,30.14,ESE,108,1.0,4.0,46,0.00,,,0.00,Wunderground v.1.15,2013-02-15 16:36:00,
2013-02-15 08:41:00,64.3,42.5,30.14,East,97,0.0,3.0,45,0.00,,,0.00,Wunderground v.1.15,2013-02-15 16:41:00,
2013-02-15 08:46:00,65.0,43.1,30.14,East,94,1.0,4.0,45,0.00,,,0.00,Wunderground v.1.15,2013-02-15 16:46:00,
2013-02-15 08:51:00,65.5,41.8,30.14,East,98,1.0,2.0,42,0.00,,,0.00,Wunderground v.1.15,2013-02-15 16:51:00,
2013-02-15 08:56:00,66.3,42.5,30.14,East,90,0.0,3.0,42,0.00,,,0.00,Wunderground v.1.15,2013-02-15 16:56:00,
2013-02-15 09:01:00,66.8,41.7,30.14,ESE,107,2.0,3.0,40,0.00,,,0.00,Wunderground v.1.15,2013-02-15 17:01:00,
2013-02-15 09:06:00,67.1,42.6,30.14,East,89,2.0,6.0,41,0.00,,,0.00,Wunderground v.1.15,2013-02-15 17:06:00,
2013-02-15 09:11:00,67.4,40.9,30.14,ENE,75,0.0,4.0,38,0.00,,,0.00,Wunderground v.1.15,2013-02-15 17:11:00,
2013-02-15 09:16:00,68.1,40.8,30.14,ESE,108,0.0,6.0,37,0.00,,,0.00,Wunderground v.1.15,2013-02-15 17:16:00,
2013-02-15 09:21:00,68.8,40.0,30.14,NE,51,2.0,3.0,35,0.00,,,0.00,Wunderground v.1.15,2013-02-15 17:21:00,
2013-02-15 09:26:00,69.3,38.9,30.14,ESE,106,0.0,5.0,33,0.00,,,0.00,Wunderground v.1.15,2013-02-15 17:26:00,
2013-02-15 09:31:00,69.1,38.8,30.14,ESE,105,2.0,3.0,33,0.00,,,0.00,Wunderground v.1.15,2013-02-15 17:31:00,
2013-02-15 09:36:00,69.1,39.5,30.14,SE,129,1.0,5.0,34,0.00,,,0.00,Wunderground v.1.15,2013-02-15 17:36:00,
2013-02-15 09:41:00,69.4,38.2,30.14,East,101,0.0,3.0,32,0.00,,,0.00,Wunderground v.1.15,2013-02-15 17:41:00,
2013-02-15 09:46:00,70.1,38.0,30.13,ESE,116,3.0,10.0,31,0.00,,,0.00,Wunderground v.1.15,2013-02-15 17:46:00,
2013-02-15 09:51:00,70.6,38.5,30.13,ESE,109,1.0,8.0,31,0.00,,,0.00,Wunderground v.1.15,2013-02-15 17:51:00,
2013-02-15 09:56:00,71.1,39.7,30.13,ESE,115,0.0,8.0,32,0.00,,,0.00,Wunderground v.1.15,2013-02-15 17:56:00,
2013-02-15 10:01:00,71.6,40.2,30.13,ESE,115,4.0,8.0,32,0.00,,,0.00,Wunderground v.1.15,2013-02-15 18:01:00,
2013-02-15 10:06:00,72.0,40.5,30.13,ENE,64,0.0,10.0,32,0.00,,,0.00,Wunderground v.1.15,2013-02-15 18:06:00,
2013-02-15 10:11:00,72.3,37.4,30.13,ESE,113,3.0,6.0,28,0.00,,,0.00,Wunderground v.1.15,2013-02-15 18:11:00,
2013-02-15 10:16:00,72.3,39.1,30.13,NE,44,0.0,6.0,30,0.00,,,0.00,Wunderground v.1.15,2013-02-15 18:16:00,
2013-02-15 10:21:00,73.0,38.0,30.13,East,99,6.0,6.0,28,0.00,,,0.00,Wunderground v.1.15,2013-02-15 18:21:00,
2013-02-15 10:26:00,73.2,39.0,30.13,ESE,113,0.0,6.0,29,0.00,,,0.00,Wunderground v.1.15,2013-02-15 18:26:00,
2013-02-15 10:31:00,73.5,38.4,30.13,SE,128,1.0,5.0,28,0.00,,,0.00,Wunderground v.1.15,2013-02-15 18:31:00,
2013-02-15 10:36:00,73.7,37.6,30.13,SE,127,4.0,7.0,27,0.00,,,0.00,Wunderground v.1.15,2013-02-15 18:36:00,
2013-02-15 10:41:00,73.9,38.7,30.13,East,99,1.0,6.0,28,0.00,,,0.00,Wunderground v.1.15,2013-02-15 18:41:00,
2013-02-15 10:46:00,74.4,39.2,30.13,East,79,1.0,6.0,28,0.00,,,0.00,Wunderground v.1.15,2013-02-15 18:46:00,
2013-02-15 10:51:00,74.6,38.4,30.13,ESE,104,6.0,6.0,27,0.00,,,0.00,Wunderground v.1.15,2013-02-15 18:51:00,
2013-02-15 10:56:00,74.6,39.3,30.13,ENE,60,3.0,10.0,28,0.00,,,0.00,Wunderground v.1.15,2013-02-15 18:56:00,
2013-02-15 11:01:00,74.4,38.2,30.13,ESE,120,5.0,10.0,27,0.00,,,0.00,Wunderground v.1.15,2013-02-15 19:01:00,
2013-02-15 11:06:00,74.9,38.7,30.13,ESE,111,6.0,10.0,27,0.00,,,0.00,Wunderground v.1.15,2013-02-15 19:06:00,
2013-02-15 11:11:00,75.4,39.1,30.13,NE,53,4.0,4.0,27,0.00,,,0.00,Wunderground v.1.15,2013-02-15 19:11:00,
2013-02-15 11:16:00,75.6,38.3,30.13,East,93,2.0,7.0,26,0.00,,,0.00,Wunderground v.1.15,2013-02-15 19:16:00,
2013-02-15 11:21:00,75.8,38.5,30.13,East,79,0.0,5.0,26,0.00,,,0.00,Wunderground v.1.15,2013-02-15 19:21:00,
2013-02-15 11:26:00,76.7,39.2,30.13,ESE,113,4.0,5.0,26,0.00,,,0.00,Wunderground v.1.15,2013-02-15 19:26:00,
2013-02-15 11:31:00,76.7,39.2,30.13,ESE,115,7.0,7.0,26,0.00,,,0.00,Wunderground v.1.15,2013-02-15 19:31:00,
2013-02-15 11:36:00,76.5,39.0,30.13,ESE,110,4.0,12.0,26,0.00,,,0.00,Wunderground v.1.15,2013-02-15 19:36:00,
2013-02-15 11:41:00,75.8,37.5,30.13,ESE,113,5.0,11.0,25,0.00,,,0.00,Wunderground v.1.15,2013-02-15 19:41:00,
2013-02-15 11:46:00,75.8,36.4,30.12,ESE,113,11.0,11.0,24,0.00,,,0.00,Wunderground v.1.15,2013-02-15 19:46:00,
2013-02-15 11:51:00,75.8,38.5,30.12,ESE,114,3.0,10.0,26,0.00,,,0.00,Wunderground v.1.15,2013-02-15 19:51:00,
2013-02-15 11:56:00,76.3,37.9,30.12,East,96,4.0,12.0,25,0.00,,,0.00,Wunderground v.1.15,2013-02-15 19:56:00,
2013-02-15 12:01:00,76.5,38.0,30.12,ESE,113,4.0,10.0,25,0.00,,,0.00,Wunderground v.1.15,2013-02-15 20:01:00,
2013-02-15 12:06:00,76.7,38.2,30.12,ESE,104,4.0,10.0,25,0.00,,,0.00,Wunderground v.1.15,2013-02-15 20:06:00,
2013-02-15 12:11:00,76.8,37.3,30.12,East,82,7.0,9.0,24,0.00,,,0.00,Wunderground v.1.15,2013-02-15 20:11:00,
2013-02-15 12:16:00,77.0,41.4,30.12,ESE,121,4.0,11.0,28,0.00,,,0.00,Wunderground v.1.15,2013-02-15 20:16:00,
2013-02-15 12:21:00,77.4,38.8,30.12,East,95,1.0,7.0,25,0.00,,,0.00,Wunderground v.1.15,2013-02-15 20:21:00,
2013-02-15 12:26:00,78.1,38.4,30.12,ESE,109,3.0,7.0,24,0.00,,,0.00,Wunderground v.1.15,2013-02-15 20:26:00,
2013-02-15 12:31:00,77.9,37.1,30.11,ESE,122,5.0,7.0,23,0.00,,,0.00,Wunderground v.1.15,2013-02-15 20:31:00,
2013-02-15 12:36:00,77.2,36.5,30.11,SE,125,3.0,10.0,23,0.00,,,0.00,Wunderground v.1.15,2013-02-15 20:36:00,
2013-02-15 12:41:00,77.2,36.5,30.11,ESE,109,8.0,11.0,23,0.00,,,0.00,Wunderground v.1.15,2013-02-15 20:41:00,
2013-02-15 12:46:00,77.4,35.6,30.11,ESE,110,2.0,11.0,22,0.00,,,0.00,Wunderground v.1.15,2013-02-15 20:46:00,
2013-02-15 12:51:00,78.1,37.3,30.11,ESE,118,0.0,9.0,23,0.00,,,0.00,Wunderground v.1.15,2013-02-15 20:51:00,
2013-02-15 12:56:00,77.9,36.0,30.11,SE,124,9.0,9.0,22,0.00,,,0.00,Wunderground v.1.15,2013-02-15 20:56:00,
2013-02-15 13:01:00,77.7,36.9,30.10,East,93,1.0,7.0,23,0.00,,,0.00,Wunderground v.1.15,2013-02-15 21:01:00,
2013-02-15 13:07:00,78.1,38.4,30.10,ENE,61,3.0,7.0,24,0.00,,,0.00,Wunderground v.1.15,2013-02-15 21:07:00,
2013-02-15 13:12:00,78.5,36.5,30.10,ESE,106,1.0,6.0,22,0.00,,,0.00,Wunderground v.1.15,2013-02-15 21:12:00,
2013-02-15 13:17:00,78.8,38.9,30.10,NNE,23,1.0,6.0,24,0.00,,,0.00,Wunderground v.1.15,2013-02-15 21:17:00,
2013-02-15 13:22:00,79.6,36.2,30.10,WSW,243,1.0,3.0,21,0.00,,,0.00,Wunderground v.1.15,2013-02-15 21:22:00,
2013-02-15 13:27:00,76.8,47.1,30.10,SW,226,0.0,9.0,35,0.00,,,0.00,Wunderground v.1.15,2013-02-15 21:27:00,
2013-02-15 13:32:00,73.0,45.9,30.10,West,269,2.0,7.0,38,0.00,,,0.00,Wunderground v.1.15,2013-02-15 21:32:00,
2013-02-15 13:37:00,70.6,46.4,30.10,West,266,0.0,7.0,42,0.00,,,0.00,Wunderground v.1.15,2013-02-15 21:37:00,
2013-02-15 13:42:00,69.6,45.5,30.10,WNW,285,0.0,5.0,42,0.00,,,0.00,Wunderground v.1.15,2013-02-15 21:42:00,
2013-02-15 13:47:00,69.6,46.1,30.10,WSW,255,2.0,5.0,43,0.00,,,0.00,Wunderground v.1.15,2013-02-15 21:47:00,
2013-02-15 13:52:00,70.1,47.2,30.10,WSW,238,0.0,1.0,44,0.00,,,0.00,Wunderground v.1.15,2013-02-15 21:52:00,
2013-02-15 13:57:00,70.9,46.0,30.10,ENE,60,0.0,1.0,41,0.00,,,0.00,Wunderground v.1.15,2013-02-15 21:57:00,
2013-02-15 14:02:00,70.9,45.4,30.10,West,278,0.0,1.0,40,0.00,,,0.00,Wunderground v.1.15,2013-02-15 22:02:00,
2013-02-15 14:07:00,70.6,45.7,30.10,WNW,287,0.0,1.0,41,0.00,,,0.00,Wunderground v.1.15,2013-02-15 22:07:00,
2013-02-15 14:12:00,70.4,44.9,30.10,NW,320,2.0,2.0,40,0.00,,,0.00,Wunderground v.1.15,2013-02-15 22:12:00,
2013-02-15 14:17:00,70.1,44.0,30.10,NW,314,0.0,2.0,39,0.00,,,0.00,Wunderground v.1.15,2013-02-15 22:17:00,
2013-02-15 14:22:00,70.3,45.5,30.10,NW,307,0.0,0.0,41,0.00,,,0.00,Wunderground v.1.15,2013-02-15 22:22:00,
2013-02-15 14:27:00,70.3,43.5,30.10,NNW,334,0.0,4.0,38,0.00,,,0.00,Wunderground v.1.15,2013-02-15 22:27:00,
2013-02-15 14:32:00,70.3,44.2,30.09,East,89,1.0,2.0,39,0.00,,,0.00,Wunderground v.1.15,2013-02-15 22:32:00,
2013-02-15 14:37:00,70.1,43.3,30.09,North,354,0.0,2.0,38,0.00,,,0.00,Wunderground v.1.15,2013-02-15 22:37:00,
2013-02-15 14:42:00,70.3,44.8,30.09,North,354,0.0,0.0,40,0.00,,,0.00,Wunderground v.1.15,2013-02-15 22:42:00,
2013-02-15 14:47:00,70.1,45.3,30.09,NNE,23,0.0,1.0,41,0.00,,,0.00,Wunderground v.1.15,2013-02-15 22:47:00,
2013-02-15 14:52:00,69.9,42.4,30.09,NW,314,0.0,1.0,37,0.00,,,0.00,Wunderground v.1.15,2013-02-15 22:52:00,
2013-02-15 14:57:00,69.9,42.4,30.09,NW,316,0.0,2.0,37,0.00,,,0.00,Wunderground v.1.15,2013-02-15 22:57:00,
2013-02-15 15:02:00,70.1,44.0,30.09,NW,316,0.0,1.0,39,0.00,,,0.00,Wunderground v.1.15,2013-02-15 23:02:00,
2013-02-15 15:07:00,69.9,41.7,30.09,SSE,155,0.0,2.0,36,0.00,,,0.00,Wunderground v.1.15,2013-02-15 23:07:00,
2013-02-15 15:12:00,69.8,40.9,30.09,SSE,155,0.0,0.0,35,0.00,,,0.00,Wunderground v.1.15,2013-02-15 23:12:00,
2013-02-15 15:17:00,69.4,42.7,30.10,SSE,155,0.0,1.0,38,0.00,,,0.00,Wunderground v.1.15,2013-02-15 23:17:00,
2013-02-15 15:22:00,69.4,42.7,30.10,SSE,155,0.0,0.0,38,0.00,,,0.00,Wunderground v.1.15,2013-02-15 23:22:00,
2013-02-15 15:27:00,69.3,43.3,30.10,NNE,25,0.0,3.0,39,0.00,,,0.00,Wunderground v.1.15,2013-02-15 23:27:00,
2013-02-15 15:32:00,69.1,41.0,30.10,NNE,25,0.0,0.0,36,0.00,,,0.00,Wunderground v.1.15,2013-02-15 23:32:00,
2013-02-15 15:37:00,69.1,43.1,30.10,NNE,25,0.0,0.0,39,0.00,,,0.00,Wunderground v.1.15,2013-02-15 23:37:00,
2013-02-15 15:42:00,68.8,40.0,30.10,North,1,0.0,3.0,35,0.00,,,0.00,Wunderground v.1.15,2013-02-15 23:42:00,
2013-02-15 15:47:00,68.6,42.0,30.10,NW,308,0.0,3.0,38,0.00,,,0.00,Wunderground v.1.15,2013-02-15 23:47:00,
2013-02-15 15:52:00,68.4,38.9,30.10,NNW,348,0.0,2.0,34,0.00,,,0.00,Wunderground v.1.15,2013-02-15 23:52:00,
2013-02-15 15:57:00,68.1,40.8,30.10,ESE,107,0.0,2.0,37,0.00,,,0.00,Wunderground v.1.15,2013-02-15 23:57:00,
2013-02-15 16:02:00,67.8,41.9,30.10,ESE,106,0.0,1.0,39,0.00,,,0.00,Wunderground v.1.15,2013-02-16 00:02:00,
2013-02-15 16:07:00,67.4,42.9,30.10,ESE,106,0.0,1.0,41,0.00,,,0.00,Wunderground v.1.15,2013-02-16 00:07:00,
2013-02-15 16:12:00,66.9,43.7,30.10,ESE,106,0.0,1.0,43,0.00,,,0.00,Wunderground v.1.15,2013-02-16 00:12:00,
2013-02-15 16:17:00,66.6,42.2,30.10,North,349,0.0,3.0,41,0.00,,,0.00,Wunderground v.1.15,2013-02-16 00:17:00,
2013-02-15 16:22:00,66.1,42.9,30.10,WNW,296,0.0,4.0,43,0.00,,,0.00,Wunderground v.1.15,2013-02-16 00:22:00,
2013-02-15 16:27:00,65.8,44.4,30.10,North,355,0.0,4.0,46,0.00,,,0.00,Wunderground v.1.15,2013-02-16 00:27:00,
2013-02-15 16:32:00,65.2,43.3,30.11,North,355,0.0,0.0,45,0.00,,,0.00,Wunderground v.1.15,2013-02-16 00:32:00,
2013-02-15 16:37:00,64.8,45.2,30.11,North,355,0.0,1.0,49,0.00,,,0.00,Wunderground v.1.15,2013-02-16 00:37:00,
2013-02-15 16:42:00,64.3,41.9,30.11,North,355,0.0,0.0,44,0.00,,,0.00,Wunderground v.1.15,2013-02-16 00:42:00,
2013-02-15 16:47:00,64.0,40.4,30.12,North,355,0.0,2.0,42,0.00,,,0.00,Wunderground v.1.15,2013-02-16 00:47:00,
2013-02-15 16:52:00,63.9,40.3,30.12,North,355,0.0,0.0,42,0.00,,,0.00,Wunderground v.1.15,2013-02-16 00:52:00,
2013-02-15 16:57:00,63.5,40.6,30.12,North,355,0.0,0.0,43,0.00,,,0.00,Wunderground v.1.15,2013-02-16 00:57:00,
2013-02-15 17:03:00,63.2,40.9,30.12,North,355,0.0,1.0,44,0.00,,,0.00,Wunderground v.1.15,2013-02-16 01:03:00,
2013-02-15 17:08:00,62.9,42.4,30.12,North,355,0.0,1.0,47,0.00,,,0.00,Wunderground v.1.15,2013-02-16 01:08:00,
2013-02-15 17:13:00,62.7,41.6,30.12,North,355,0.0,0.0,46,0.00,,,0.00,Wunderground v.1.15,2013-02-16 01:13:00,
2013-02-15 17:18:00,62.4,41.9,30.11,North,355,0.0,1.0,47,0.00,,,0.00,Wunderground v.1.15,2013-02-16 01:18:00,
2013-02-15 17:23:00,62.3,41.2,30.11,North,355,0.0,2.0,46,0.00,,,0.00,Wunderground v.1.15,2013-02-16 01:23:00,
2013-02-15 17:28:00,62.3,41.2,30.11,North,355,0.0,2.0,46,0.00,,,0.00,Wunderground v.1.15,2013-02-16 01:28:00,
2013-02-15 17:33:00,62.0,41.5,30.11,North,355,0.0,0.0,47,0.00,,,0.00,Wunderground v.1.15,2013-02-16 01:33:00,
2013-02-15 17:38:00,61.8,41.3,30.11,North,355,2.0,2.0,47,0.00,,,0.00,Wunderground v.1.15,2013-02-16 01:38:00,
2013-02-15 17:43:00,61.6,41.2,30.11,North,355,2.0,2.0,47,0.00,,,0.00,Wunderground v.1.15,2013-02-16 01:43:00,
2013-02-15 17:48:00,61.6,41.2,30.11,NNW,338,1.0,3.0,47,0.00,,,0.00,Wunderground v.1.15,2013-02-16 01:48:00,
2013-02-15 17:53:00,61.6,41.7,30.11,NNW,338,0.0,2.0,48,0.00,,,0.00,Wunderground v.1.15,2013-02-16 01:53:00,
2013-02-15 17:58:00,61.3,42.0,30.11,NNW,338,0.0,2.0,49,0.00,,,0.00,Wunderground v.1.15,2013-02-16 01:58:00,
2013-02-15 18:03:00,60.7,40.9,30.12,NNW,338,0.0,2.0,48,0.00,,,0.00,Wunderground v.1.15,2013-02-16 02:03:00,
2013-02-15 18:08:00,60.5,41.2,30.12,NNW,338,0.0,2.0,49,0.00,,,0.00,Wunderground v.1.15,2013-02-16 02:08:00,
2013-02-15 18:13:00,60.1,41.9,30.12,NNW,338,0.0,0.0,51,0.00,,,0.00,Wunderground v.1.15,2013-02-16 02:13:00,
2013-02-15 18:18:00,59.5,41.3,30.12,NNW,338,0.0,2.0,51,0.00,,,0.00,Wunderground v.1.15,2013-02-16 02:18:00,
2013-02-15 18:23:00,58.7,43.0,30.12,NNW,338,2.0,2.0,56,0.00,,,0.00,Wunderground v.1.15,2013-02-16 02:23:00,
2013-02-15 18:28:00,57.8,43.1,30.12,NNW,338,0.0,2.0,58,0.00,,,0.00,Wunderground v.1.15,2013-02-16 02:28:00,
2013-02-15 18:33:00,57.2,41.2,30.12,NNW,338,0.0,2.0,55,0.00,,,0.00,Wunderground v.1.15,2013-02-16 02:33:00,
2013-02-15 18:38:00,57.2,42.5,30.12,NNW,338,0.0,2.0,58,0.00,,,0.00,Wunderground v.1.15,2013-02-16 02:38:00,
2013-02-15 18:43:00,56.9,41.8,30.12,NNW,338,0.0,2.0,57,0.00,,,0.00,Wunderground v.1.15,2013-02-16 02:43:00,
2013-02-15 18:48:00,56.6,41.1,30.12,WNW,287,3.0,4.0,56,0.00,,,0.00,Wunderground v.1.15,2013-02-16 02:48:00,
2013-02-15 18:53:00,56.3,41.7,30.12,ESE,108,3.0,3.0,58,0.00,,,0.00,Wunderground v.1.15,2013-02-16 02:53:00,
2013-02-15 18:58:00,55.7,42.5,30.12,WNW,286,3.0,3.0,61,0.00,,,0.00,Wunderground v.1.15,2013-02-16 02:58:00,
2013-02-15 19:03:00,55.4,42.6,30.12,WNW,285,2.0,3.0,62,0.00,,,0.00,Wunderground v.1.15,2013-02-16 03:03:00,
2013-02-15 19:08:00,55.0,41.4,30.12,WNW,285,3.0,4.0,60,0.00,,,0.00,Wunderground v.1.15,2013-02-16 03:08:00,
2013-02-15 19:13:00,55.0,42.2,30.12,WNW,285,0.0,2.0,62,0.00,,,0.00,Wunderground v.1.15,2013-02-16 03:13:00,
2013-02-15 19:18:00,54.5,42.2,30.12,WNW,285,0.0,2.0,63,0.00,,,0.00,Wunderground v.1.15,2013-02-16 03:18:00,
2013-02-15 19:23:00,54.2,41.9,30.12,WNW,285,0.0,1.0,63,0.00,,,0.00,Wunderground v.1.15,2013-02-16 03:23:00,
2013-02-15 19:28:00,54.2,41.5,30.12,WNW,285,0.0,3.0,62,0.00,,,0.00,Wunderground v.1.15,2013-02-16 03:28:00,
2013-02-15 19:33:00,54.1,42.2,30.12,WNW,285,0.0,0.0,64,0.00,,,0.00,Wunderground v.1.15,2013-02-16 03:33:00,
2013-02-15 19:38:00,53.6,41.3,30.12,WNW,285,0.0,3.0,63,0.00,,,0.00,Wunderground v.1.15,2013-02-16 03:38:00,
2013-02-15 19:43:00,53.5,41.2,30.12,WNW,285,0.0,2.0,63,0.00,,,0.00,Wunderground v.1.15,2013-02-16 03:43:00,
2013-02-15 19:48:00,53.5,42.0,30.12,WNW,285,2.0,2.0,65,0.00,,,0.00,Wunderground v.1.15,2013-02-16 03:48:00,
2013-02-15 19:53:00,53.6,41.3,30.12,WNW,285,0.0,2.0,63,0.00,,,0.00,Wunderground v.1.15,2013-02-16 03:53:00,
2013-02-15 19:58:00,53.5,41.6,30.12,WNW,285,0.0,2.0,64,0.00,,,0.00,Wunderground v.1.15,2013-02-16 03:58:00,
2013-02-15 20:03:00,53.6,40.9,30.12,WNW,285,0.0,3.0,62,0.00,,,0.00,Wunderground v.1.15,2013-02-16 04:03:00,
2013-02-15 20:08:00,53.8,41.1,30.12,WNW,285,0.0,3.0,62,0.00,,,0.00,Wunderground v.1.15,2013-02-16 04:08:00,
2013-02-15 20:13:00,53.6,40.9,30.12,WNW,285,0.0,1.0,62,0.00,,,0.00,Wunderground v.1.15,2013-02-16 04:13:00,
2013-02-15 20:18:00,53.5,41.2,30.12,WNW,285,0.0,1.0,63,0.00,,,0.00,Wunderground v.1.15,2013-02-16 04:18:00,
2013-02-15 20:23:00,53.2,41.3,30.12,WNW,285,0.0,2.0,64,0.00,,,0.00,Wunderground v.1.15,2013-02-16 04:23:00,
2013-02-15 20:28:00,53.2,40.9,30.12,WNW,285,0.0,2.0,63,0.00,,,0.00,Wunderground v.1.15,2013-02-16 04:28:00,
2013-02-15 20:33:00,53.5,40.8,30.12,WNW,285,0.0,0.0,62,0.00,,,0.00,Wunderground v.1.15,2013-02-16 04:33:00,
2013-02-15 20:38:00,53.8,40.2,30.12,WNW,285,0.0,2.0,60,0.00,,,0.00,Wunderground v.1.15,2013-02-16 04:38:00,
2013-02-15 20:43:00,55.0,40.0,30.12,WNW,285,2.0,2.0,57,0.00,,,0.00,Wunderground v.1.15,2013-02-16 04:43:00,
2013-02-15 20:48:00,56.3,40.3,30.12,WNW,285,0.0,2.0,55,0.00,,,0.00,Wunderground v.1.15,2013-02-16 04:48:00,
2013-02-15 20:53:00,57.2,40.7,30.12,WNW,285,1.0,3.0,54,0.00,,,0.00,Wunderground v.1.15,2013-02-16 04:53:00,
2013-02-15 20:58:00,57.5,41.0,30.12,WNW,285,0.0,3.0,54,0.00,,,0.00,Wunderground v.1.15,2013-02-16 04:58:00,
2013-02-15 21:00:00,57.5,41.0,30.12,WNW,285,0.0,3.0,54,0.00,,,0.00,Wunderground v.1.15,2013-02-16 05:00:00,
2013-02-15 21:05:00,57.8,40.8,30.12,WNW,285,0.0,2.0,53,0.00,,,0.00,Wunderground v.1.15,2013-02-16 05:05:00,
2013-02-15 21:10:00,58.1,40.6,30.12,WNW,285,0.0,1.0,52,0.00,,,0.00,Wunderground v.1.15,2013-02-16 05:10:00,
2013-02-15 21:15:00,58.6,40.0,30.12,WNW,285,0.0,1.0,50,0.00,,,0.00,Wunderground v.1.15,2013-02-16 05:15:00,
2013-02-15 21:20:00,59.0,40.4,30.12,WNW,285,0.0,1.0,50,0.00,,,0.00,Wunderground v.1.15,2013-02-16 05:20:00,
2013-02-15 21:23:00,59.0,40.4,30.12,WNW,285,0.0,2.0,50,0.00,,,0.00,Wunderground v.1.15,2013-02-16 05:23:00,
2013-02-15 21:28:00,59.2,41.1,30.12,WNW,285,0.0,2.0,51,0.00,,,0.00,Wunderground v.1.15,2013-02-16 05:28:00,
2013-02-15 21:33:00,58.9,40.3,30.12,WNW,285,0.0,1.0,50,0.00,,,0.00,Wunderground v.1.15,2013-02-16 05:33:00,
2013-02-15 21:38:00,58.7,40.6,30.12,WNW,285,0.0,1.0,51,0.00,,,0.00,Wunderground v.1.15,2013-02-16 05:38:00,
2013-02-15 21:43:00,58.6,40.5,30.12,WNW,285,0.0,1.0,51,0.00,,,0.00,Wunderground v.1.15,2013-02-16 05:43:00,
2013-02-15 21:48:00,58.4,40.8,30.12,WNW,285,0.0,1.0,52,0.00,,,0.00,Wunderground v.1.15,2013-02-16 05:48:00,
2013-02-15 21:53:00,58.4,40.8,30.12,WNW,285,0.0,1.0,52,0.00,,,0.00,Wunderground v.1.15,2013-02-16 05:53:00,
2013-02-15 21:58:00,58.7,41.1,30.12,WNW,285,1.0,2.0,52,0.00,,,0.00,Wunderground v.1.15,2013-02-16 05:58:00,
2013-02-15 22:03:00,59.0,41.4,30.12,WNW,285,0.0,0.0,52,0.00,,,0.00,Wunderground v.1.15,2013-02-16 06:03:00,
2013-02-15 22:08:00,59.2,41.6,30.12,WNW,285,0.0,2.0,52,0.00,,,0.00,Wunderground v.1.15,2013-02-16 06:08:00,
2013-02-15 22:13:00,59.3,41.2,30.12,WNW,285,0.0,3.0,51,0.00,,,0.00,Wunderground v.1.15,2013-02-16 06:13:00,
2013-02-15 22:18:00,59.3,41.2,30.12,WNW,285,0.0,3.0,51,0.00,,,0.00,Wunderground v.1.15,2013-02-16 06:18:00,
2013-02-15 22:23:00,59.5,41.3,30.12,WNW,285,0.0,0.0,51,0.00,,,0.00,Wunderground v.1.15,2013-02-16 06:23:00,
2013-02-15 22:28:00,59.3,41.7,30.12,WNW,285,1.0,1.0,52,0.00,,,0.00,Wunderground v.1.15,2013-02-16 06:28:00,
2013-02-15 22:33:00,59.2,41.6,30.11,WNW,285,0.0,1.0,52,0.00,,,0.00,Wunderground v.1.15,2013-02-16 06:33:00,
2013-02-15 22:38:00,59.2,42.1,30.11,NW,316,0.0,2.0,53,0.00,,,0.00,Wunderground v.1.15,2013-02-16 06:38:00,
2013-02-15 22:43:00,59.3,41.7,30.11,NW,316,0.0,2.0,52,0.00,,,0.00,Wunderground v.1.15,2013-02-16 06:43:00,
2013-02-15 22:48:00,59.3,42.2,30.11,NW,316,1.0,2.0,53,0.00,,,0.00,Wunderground v.1.15,2013-02-16 06:48:00,
2013-02-15 22:53:00,59.5,41.9,30.11,NW,316,0.0,1.0,52,0.00,,,0.00,Wunderground v.1.15,2013-02-16 06:53:00,
2013-02-15 22:58:00,59.6,41.9,30.11,NW,316,0.0,1.0,52,0.00,,,0.00,Wunderground v.1.15,2013-02-16 06:58:00,
2013-02-15 23:03:00,59.8,42.1,30.10,NW,316,0.0,0.0,52,0.00,,,0.00,Wunderground v.1.15,2013-02-16 07:03:00,
2013-02-15 23:08:00,59.9,42.2,30.10,NW,316,2.0,2.0,52,0.00,,,0.00,Wunderground v.1.15,2013-02-16 07:08:00,
2013-02-15 23:13:00,60.1,41.4,30.10,NW,316,0.0,1.0,50,0.00,,,0.00,Wunderground v.1.15,2013-02-16 07:13:00,
2013-02-15 23:18:00,60.2,42.0,30.10,NW,316,2.0,3.0,51,0.00,,,0.00,Wunderground v.1.15,2013-02-16 07:18:00,
2013-02-15 23:23:00,60.2,41.5,30.10,NW,316,0.0,3.0,50,0.00,,,0.00,Wunderground v.1.15,2013-02-16 07:23:00,
2013-02-15 23:28:00,60.5,41.2,30.10,NW,314,1.0,3.0,49,0.00,,,0.00,Wunderground v.1.15,2013-02-16 07:28:00,
2013-02-15 23:33:00,60.9,42.1,30.10,West,259,0.0,4.0,50,0.00,,,0.00,Wunderground v.1.15,2013-02-16 07:33:00,
2013-02-15 23:38:00,60.5,41.8,30.10,West,259,2.0,4.0,50,0.00,,,0.00,Wunderground v.1.15,2013-02-16 07:38:00,
2013-02-15 23:43:00,60.5,40.2,30.10,ENE,70,1.0,3.0,47,0.00,,,0.00,Wunderground v.1.15,2013-02-16 07:43:00,
2013-02-15 23:48:00,60.9,40.5,30.10,ENE,70,0.0,3.0,47,0.00,,,0.00,Wunderground v.1.15,2013-02-16 07:48:00,
2013-02-15 23:53:00,61.2,40.8,30.10,West,265,0.0,3.0,47,0.00,,,0.00,Wunderground v.1.15,2013-02-16 07:53:00,
2013-02-15 23:58:00,61.0,40.6,30.10,West,264,3.0,4.0,47,0.00,,,0.00,Wunderground v.1.15,2013-02-16 07:58:00,